• Join FlightAware (Why Join?)
  • Login
  • US Flag 
04:46PM EST


 

Airport Tracker/Info


-or-


 

Live Flight TrackerFlight Track Log ✈ JZA8745 ✈ 03-May-2013 ✈ CZBF - CYUL

Flight Track Log - Related Links

Times and Time Zones

All times are in EDT time to prevent confusion due to time zone crossing. See the JZA8745 flight status page for this flight to view local times or setup timezone preferences in your user account.

Time Position Orientation Groundspeed Altitude Reporting Facility
EDT Latitude Longitude Course Direction KTS MPH feet Rate Location/Type
03:14PM 47.6000 -65.7333 254° West 140 161 4,200  Level Moncton Center
03:15PM 47.5833 -65.8167 254° West 180 207 5,400 1,140 Climbing Moncton Center
03:16PM 47.5500 -65.8833 233° Southwest 200 230 6,500 1,080 Climbing Moncton Center
03:17PM 47.5000 -65.9333 214° Southwest 200 230 7,600 1,140 Climbing Moncton Center
03:18PM 47.4667 -66.0000 234° Southwest 210 242 8,800 1,080 Climbing Moncton Center
03:19PM 47.4333 -66.0500 225° Southwest 210 242 9,800 1,020 Climbing Moncton Center
03:20PM 47.3833 -66.1333 228° Southwest 200 230 10,900 1,080 Climbing Moncton Center
03:21PM 47.3667 -66.2000 250° West 200 230 12,000 1,020 Climbing Moncton Center
03:22PM 47.3500 -66.2667 250° West 210 242 13,000 960 Climbing Moncton Center
03:23PM 47.3167 -66.3500 239° Southwest 210 242 14,000 900 Climbing Moncton Center
03:24PM 47.3000 -66.4500 256° West 220 253 14,900 900 Climbing Moncton Center
03:25PM 47.2667 -66.5167 234° Southwest 220 253 15,800 900 Climbing Moncton Center
03:26PM 47.2500 -66.6000 254° West 220 253 16,700 900 Climbing Moncton Center
03:27PM 47.2000 -66.6833 229° Southwest 240 276 17,600 840 Climbing Moncton Center
03:28PM 47.1833 -66.7833 256° West 230 265 18,400 480 Climbing Moncton Center
03:29PM 47.1500 -66.8667 240° Southwest 220 253 18,600 480 Climbing Moncton Center
03:30PM 47.1333 -66.9500 254° West 240 276 19,400 660 Climbing Moncton Center
03:31PM 47.1000 -67.0333 240° Southwest 230 265 20,000 600 Climbing Moncton Center
03:32PM 47.0833 -67.1333 256° West 230 265 20,700 660 Climbing Moncton Center
03:33PM 47.0667 -67.2167 254° West 230 265 21,400 600 Climbing Moncton Center
03:34PM 47.0333 -67.3000 240° Southwest 230 265 22,000 540 Climbing Moncton Center
03:35PM 47.0000 -67.4000 244° Southwest 230 265 22,500 480 Climbing Moncton Center
03:36PM 46.9833 -67.4667 250° West 240 276 23,000 540 Climbing Moncton Center
03:37PM 46.9500 -67.5667 244° Southwest 230 265 23,600 420 Climbing Moncton Center
03:38PM 46.9433 -67.6394 262° West 236 272 24,000 120 Climbing Boston Center
03:39PM 46.9214 -67.7142 247° West 236 272 23,900  Descending Boston Center
03:40PM 46.8886 -67.8325 248° West 246 283 24,000  Climbing Boston Center
03:41PM 46.8569 -67.9322 245° Southwest 259 298 23,900  Descending Boston Center
03:42PM 46.8258 -68.0439 248° West 280 322 24,000  Climbing Boston Center
03:43PM 46.7997 -68.1278 246° West 285 328 24,000  Level Boston Center
03:44PM 46.7550 -68.2739 246° West 291 335 24,000  Level Boston Center
03:45PM 46.7158 -68.4008 246° West 291 335 24,000  Level Boston Center
03:46PM 46.6839 -68.5061 246° West 285 328 24,000  Level Boston Center
03:47PM 46.6500 -68.6142 245° Southwest 285 328 24,000  Level Boston Center
03:48PM 46.6181 -68.7192 246° West 285 328 24,000  Level Boston Center
03:49PM 46.5861 -68.8269 247° West 285 328 24,000  Level Boston Center
03:50PM 46.5517 -68.9317 244° Southwest 285 328 24,000  Level Boston Center
03:51PM 46.5156 -69.0425 245° Southwest 285 328 24,000  Level Boston Center
03:52PM 46.4831 -69.1531 247° West 285 328 24,000 -60 Level Boston Center
03:53PM 46.4519 -69.2331 241° Southwest 290 334 23,900 -60 Descending Boston Center
03:54PM 46.4117 -69.3589 245° Southwest 290 334 23,900  Level Boston Center
03:55PM 46.3792 -69.4658 246° West 290 334 23,900  Level Boston Center
03:56PM 46.3403 -69.5853 245° Southwest 290 334 24,000  Climbing Boston Center
03:57PM 46.3072 -69.6831 244° Southwest 290 334 24,000  Level Boston Center
03:58PM 46.2722 -69.7839 243° Southwest 290 334 24,000  Level Boston Center
03:59PM 46.2447 -69.8631 243° Southwest 290 334 24,000  Level Boston Center
04:00PM 46.2447 -69.8631 54° Northeast 290 334 24,000  Level Boston Center
04:01PM 46.2447 -69.8631 54° Northeast 290 334 24,000  Level Boston Center
04:02PM 46.1500 -70.1833 247° West 280 322 24,000  Level Montreal Center
04:03PM 46.1500 -70.3000 270° West 280 322 24,000  Level Montreal Center
04:04PM 46.1333 -70.4000 257° West 280 322 24,000  Level Montreal Center
04:05PM 46.1000 -70.5167 248° West 280 322 24,000  Level Montreal Center
04:06PM 46.1000 -70.6167 270° West 280 322 24,000  Level Montreal Center
04:07PM 46.0833 -70.7500 260° West 280 322 24,000  Level Montreal Center
04:08PM 46.0500 -70.8500 244° Southwest 280 322 24,000  Level Montreal Center
04:09PM 46.0500 -70.9333 270° West 280 322 24,000  Level Montreal Center
04:10PM 46.0333 -71.0667 260° West 280 322 24,000  Level Montreal Center
04:11PM 46.0167 -71.1667 257° West 280 322 24,000  Level Montreal Center
04:12PM 46.0000 -71.2833 258° West 280 322 24,000  Level Montreal Center
04:13PM 45.9833 -71.3833 257° West 270 311 24,000  Level Montreal Center
04:14PM 45.9667 -71.5000 258° West 270 311 24,000  Level Montreal Center
04:15PM 45.9333 -71.6000 244° Southwest 280 322 24,000  Level Montreal Center
04:16PM 45.9333 -71.7000 270° West 270 311 24,000  Level Montreal Center
04:17PM 45.9167 -71.8167 258° West 270 311 24,000  Level Montreal Center
04:18PM 45.9000 -71.9167 257° West 270 311 24,000  Level Montreal Center
04:19PM 45.8667 -72.0500 250° West 270 311 24,000 -480 Level Montreal Center
04:20PM 45.8667 -72.1333 270° West 280 322 23,100 -960 Descending Montreal Center
04:21PM 45.8500 -72.2667 260° West 300 345 22,100 -1,020 Descending Montreal Center
04:22PM 45.8167 -72.3833 248° West 310 357 21,100 -1,080 Descending Montreal Center
04:23PM 45.8000 -72.5000 258° West 320 368 20,000 -1,080 Descending Montreal Center
04:24PM 45.7667 -72.6333 250° West 320 368 19,000 -1,020 Descending Montreal Center
04:25PM 45.7667 -72.7500 270° West 320 368 18,000 -900 Descending Montreal Center
04:26PM 45.7333 -72.9000 252° West 320 368 17,200 -1,080 Descending Montreal Center
04:27PM 45.7167 -72.9833 254° West 310 357 15,900 -1,500 Descending Montreal Center
04:28PM 45.6833 -73.1333 252° West 310 357 14,300 -1,560 Descending Montreal Center
04:29PM 45.6333 -73.2333 234° Southwest 300 345 12,800 -1,500 Descending Montreal Center
04:30PM 45.6167 -73.3167 254° West 290 334 11,300 -1,500 Descending Montreal Center
04:31PM 45.5667 -73.4333 239° Southwest 290 334 9,800 -1,500 Descending Montreal Center
04:32PM 45.5167 -73.4833 215° Southwest 270 311 8,300 -1,560 Descending Montreal Center
04:33PM 45.4500 -73.5500 215° Southwest 260 299 6,700 -1,380 Descending Montreal Center
04:34PM 45.4000 -73.6333 230° Southwest 250 288 5,600 -1,200 Descending Montreal Center
04:35PM 45.3500 -73.6833 215° Southwest 230 265 4,400 -960 Descending Montreal Center
04:36PM 45.3167 -73.7500 235° Southwest 210 242 3,700 -720 Descending Montreal Center
04:37PM 45.3000 -73.8167 250° West 220 253 3,000 -360 Descending Montreal Center
04:38PM 45.3333 -73.9000 300° West 190 219 3,000 -300 Level Montreal Center
04:39PM 45.3667 -73.8667 35° Northeast 160 184 2,500 -600 Descending Montreal Center
04:40PM 45.4000 -73.8167 46° Northeast 160 184 1,800 -900 Descending Montreal Center
04:41PM 45.4167 -73.8000 35° Northeast 110 127 800 -1,020 Descending Montreal Center